Accueil
METAR-TAF:

METAR-TAF

Aéroports :

Aéroport international des Seychelles

Victoria, Mahé, Seychelles

latitude: 04-40S, longitude: 055-31E, altitude: 3 m

Observation

Le bulletin a été fait il y a 1 heure et 9 minutes, à 17:00 UTC
Vent 12 kt de est/sud-est
Température 28°C
Humidité 79%
Pression 1013 hPa
Visibilité 10 km ou plus
Nuages épars à une hauteur de 1900 ft

METAR: FSIA 201700Z 12012KT 9999 SCT019 28/24 Q1013 NOSIG

Heure: 22:09 (18:09 UTC)

Prévision

Le bulletin a été fait il y a 19 heures et 7 minutes, à 23:02 UTC
Prévision valable du 20 à 00 UTC au 20 à 24 UTC
Vent 12 kt de sud-est
Visibilité 10 km ou plus
Nuages épars à une hauteur de 2100 ft
Evoluant progressivement
du 20 à 06 UTC au 20 à 08 UTC
Vent 15 kt de sud-est avec des rafales jusqu'à 25 kt

TAF: FSIA 192302Z 2000/2024 14012KT 9999 SCT021 BECMG 2006/2008 14015G25KT

Observations et prévisions météorologiques de plus de 4000 aéroports (messages METAR et TAF).

Les stations disponibles sont représentées par des disques jaunes et rouges sur la carte.

Passer la souris dessus pour voir le nom de la station.

Cliquer dessus pour voir les observations et prévisions météorologiques.

Pour changer de carte: cliquez sur les boutons verts avec une croix noire pour zoomer, sur le bouton vert avec un tiret pour effectuer un zoom arrière, ou sur les flèches vertes pour les cartes adjacentes.


METAR-TAF: